createdAt,value
2024-03-12T00:00:08.083Z,14.80
2024-03-12T00:03:37.310Z,15.30
2024-03-12T00:06:27.247Z,16.60
2024-03-12T00:09:15.984Z,15.50
2024-03-12T00:12:04.203Z,15.30
2024-03-12T00:14:52.394Z,13.30
2024-03-12T00:17:40.973Z,17.50
2024-03-12T00:20:37.150Z,14.10
2024-03-12T00:23:27.280Z,20.00
2024-03-12T00:26:16.637Z,17.40
2024-03-12T00:29:06.105Z,19.30
2024-03-12T00:31:56.334Z,17.50
2024-03-12T00:34:44.996Z,19.00
2024-03-12T00:37:36.595Z,18.40
2024-03-12T00:40:34.865Z,17.00
2024-03-12T00:43:23.424Z,18.10
2024-03-12T00:46:12.666Z,18.60
2024-03-12T00:49:01.282Z,19.70
2024-03-12T00:51:50.208Z,18.80
2024-03-12T00:54:38.395Z,18.20
2024-03-12T00:57:28.471Z,17.70
2024-03-12T01:00:18.400Z,17.80
2024-03-12T01:03:09.975Z,17.20
2024-03-12T01:05:59.363Z,17.40
2024-03-12T01:08:47.808Z,17.20
2024-03-12T01:11:35.821Z,15.60
2024-03-12T01:14:24.271Z,16.50
2024-03-12T01:17:12.249Z,17.00
2024-03-12T01:20:01.000Z,17.10
2024-03-12T01:22:51.838Z,17.90
2024-03-12T01:25:42.908Z,18.10
2024-03-12T01:28:31.852Z,17.20
2024-03-12T01:31:22.995Z,16.60
2024-03-12T01:34:12.358Z,16.90
2024-03-12T01:37:01.362Z,17.70
2024-03-12T01:39:53.858Z,18.90
2024-03-12T01:42:42.240Z,17.80
2024-03-12T01:45:34.567Z,15.90
2024-03-12T01:48:24.230Z,15.70
2024-03-12T01:51:14.210Z,16.80
2024-03-12T01:54:05.361Z,16.10
2024-03-12T01:56:53.679Z,15.70
2024-03-12T01:59:42.200Z,17.30
2024-03-12T02:02:30.679Z,17.90
2024-03-12T02:05:20.379Z,15.80
2024-03-12T02:08:08.723Z,16.10
2024-03-12T02:10:57.111Z,16.70
2024-03-12T02:13:46.127Z,16.70
2024-03-12T02:16:34.524Z,14.80
2024-03-12T02:19:23.030Z,15.90
2024-03-12T02:22:11.557Z,16.10
2024-03-12T02:25:00.489Z,17.10
2024-03-12T02:27:49.148Z,16.60
2024-03-12T02:30:37.566Z,19.20
2024-03-12T02:33:26.365Z,22.90
2024-03-12T02:36:14.868Z,16.70
2024-03-12T02:39:05.566Z,19.70
2024-03-12T02:41:53.822Z,16.00
2024-03-12T02:44:42.383Z,16.50
2024-03-12T02:47:30.835Z,16.80
2024-03-12T02:50:19.833Z,17.40
2024-03-12T02:53:08.260Z,16.10
2024-03-12T02:55:56.782Z,14.40
2024-03-12T02:58:45.340Z,14.40
2024-03-12T03:01:33.977Z,15.60
2024-03-12T03:04:25.751Z,15.10
2024-03-12T03:07:17.121Z,14.50
2024-03-12T03:10:06.026Z,16.20
2024-03-12T03:12:54.376Z,15.10
2024-03-12T03:15:42.820Z,15.20
2024-03-12T03:18:31.546Z,14.80
2024-03-12T03:21:20.530Z,14.10
2024-03-12T03:24:08.980Z,15.00
2024-03-12T03:26:58.650Z,14.30
2024-03-12T03:29:47.253Z,16.50
2024-03-12T03:32:36.917Z,16.10
2024-03-12T03:35:25.283Z,15.70
2024-03-12T03:38:13.655Z,15.20
2024-03-12T03:41:02.295Z,14.30
2024-03-12T03:43:50.841Z,14.80
2024-03-12T03:46:39.692Z,12.50
2024-03-12T03:49:28.526Z,12.90
2024-03-12T03:52:17.071Z,13.30
2024-03-12T03:55:08.103Z,16.90
2024-03-12T03:57:56.389Z,13.40
2024-03-12T04:00:44.402Z,13.30
2024-03-12T04:03:32.892Z,11.60
2024-03-12T04:06:24.113Z,13.10
2024-03-12T04:09:12.935Z,12.90
2024-03-12T04:12:01.701Z,11.00
2024-03-12T04:14:50.016Z,11.60
2024-03-12T04:17:38.641Z,11.50
2024-03-12T04:20:27.540Z,12.00
2024-03-12T04:23:15.916Z,12.20
2024-03-12T04:26:05.247Z,10.90
2024-03-12T04:28:53.513Z,11.30
2024-03-12T04:31:41.449Z,11.90
2024-03-12T04:34:31.630Z,13.60
2024-03-12T04:37:19.849Z,11.70
2024-03-12T04:40:09.471Z,13.10
2024-03-12T04:42:58.083Z,10.10
2024-03-12T04:45:46.567Z,9.40
2024-03-12T04:48:34.815Z,10.50
2024-03-12T04:51:22.947Z,9.60
2024-03-12T04:54:10.969Z,9.10
2024-03-12T04:56:59.562Z,10.90
2024-03-12T04:59:49.341Z,11.20
2024-03-12T05:02:37.710Z,11.70
2024-03-12T05:05:27.270Z,10.80
2024-03-12T05:08:15.793Z,11.80
2024-03-12T05:11:05.177Z,12.10
2024-03-12T05:13:53.458Z,11.70
2024-03-12T05:16:42.906Z,9.80
2024-03-12T05:19:31.400Z,10.10
2024-03-12T05:22:20.188Z,22.10
2024-03-12T05:25:12.233Z,17.30
2024-03-12T05:28:05.663Z,13.20
2024-03-12T05:30:54.999Z,10.70
2024-03-12T05:33:43.365Z,12.90
2024-03-12T05:36:42.023Z,12.90
2024-03-12T05:39:49.764Z,11.00
2024-03-12T05:42:57.340Z,11.40
2024-03-12T05:46:04.520Z,10.20
2024-03-12T05:48:54.054Z,13.60
2024-03-12T05:51:42.396Z,11.90
2024-03-12T05:54:30.643Z,12.80
2024-03-12T05:57:19.770Z,10.60
2024-03-12T06:00:13.026Z,11.90
2024-03-12T06:03:01.588Z,13.10
2024-03-12T06:05:50.110Z,12.80
2024-03-12T06:08:39.968Z,13.70
2024-03-12T06:11:28.815Z,14.30
2024-03-12T06:14:16.842Z,13.00
2024-03-12T06:17:05.483Z,13.00
2024-03-12T06:19:53.848Z,14.70
2024-03-12T06:22:46.282Z,13.10
2024-03-12T06:25:34.558Z,12.20
2024-03-12T06:28:23.617Z,16.10
2024-03-12T06:31:12.907Z,15.70
2024-03-12T06:34:01.995Z,14.40
2024-03-12T06:36:57.409Z,16.00
2024-03-12T06:39:46.340Z,14.70
2024-03-12T06:42:35.019Z,15.30
2024-03-12T06:45:25.657Z,14.60
2024-03-12T06:48:15.192Z,14.00
2024-03-12T06:51:08.302Z,14.00
2024-03-12T06:53:56.755Z,21.30
2024-03-12T06:56:47.973Z,15.60
2024-03-12T06:59:36.415Z,14.10
2024-03-12T07:02:25.078Z,12.50
2024-03-12T07:05:17.276Z,13.80
2024-03-12T07:08:07.010Z,16.40
2024-03-12T07:10:57.185Z,14.40
2024-03-12T07:13:50.161Z,16.40
2024-03-12T07:16:42.995Z,13.70
2024-03-12T07:19:32.400Z,13.30
2024-03-12T07:22:20.804Z,14.50
2024-03-12T07:25:13.004Z,13.90
2024-03-12T07:28:08.327Z,15.20
2024-03-12T07:30:57.621Z,14.00
2024-03-12T07:33:46.965Z,15.90
2024-03-12T07:36:35.687Z,13.90
2024-03-12T07:39:27.263Z,12.40
2024-03-12T07:42:20.503Z,15.00
2024-03-12T07:45:15.982Z,14.20
2024-03-12T07:48:07.246Z,14.50
2024-03-12T07:51:02.787Z,14.60
2024-03-12T07:53:52.710Z,14.00
2024-03-12T07:56:40.951Z,12.60
2024-03-12T07:59:32.724Z,12.60
2024-03-12T08:02:22.974Z,15.10
2024-03-12T08:05:12.298Z,14.40
2024-03-12T08:08:01.000Z,15.30
2024-03-12T08:10:49.455Z,15.10
2024-03-12T08:13:37.600Z,15.70
2024-03-12T08:16:25.823Z,17.10
2024-03-12T08:19:14.332Z,14.40
2024-03-12T08:22:04.888Z,14.40
2024-03-12T08:24:55.762Z,14.10
2024-03-12T08:27:44.280Z,14.60
2024-03-12T08:30:34.494Z,14.20
2024-03-12T08:33:22.547Z,13.20
2024-03-12T08:36:10.719Z,13.40
2024-03-12T08:39:00.237Z,14.80
2024-03-12T08:41:49.088Z,15.60
2024-03-12T08:44:37.761Z,13.60
2024-03-12T08:47:26.752Z,15.10
2024-03-12T08:50:16.279Z,15.40
2024-03-12T08:53:04.727Z,14.80
2024-03-12T08:55:53.323Z,15.60
2024-03-12T08:58:41.429Z,13.50
2024-03-12T09:01:30.016Z,16.30
2024-03-12T09:04:18.852Z,15.50
2024-03-12T09:07:10.209Z,15.50
2024-03-12T09:10:00.325Z,15.60
2024-03-12T09:12:48.468Z,13.30
2024-03-12T09:15:37.454Z,15.30
2024-03-12T09:18:27.583Z,14.70
2024-03-12T09:24:06.638Z,13.10
2024-03-12T09:26:55.292Z,13.60
2024-03-12T09:29:43.791Z,14.10
2024-03-12T09:32:32.020Z,13.70
2024-03-12T09:35:20.717Z,12.60
2024-03-12T09:38:10.998Z,13.80
2024-03-12T09:41:04.509Z,13.50
2024-03-12T09:43:55.213Z,13.70
2024-03-12T09:46:46.913Z,13.90
2024-03-12T09:49:38.792Z,16.40
2024-03-12T09:52:27.503Z,15.80
2024-03-12T09:55:17.151Z,14.50
2024-03-12T09:58:07.806Z,15.40
2024-03-12T10:00:56.708Z,12.90
2024-03-12T10:03:47.752Z,12.40
2024-03-12T10:06:37.007Z,11.00
2024-03-12T10:09:29.475Z,12.70
2024-03-12T10:12:22.158Z,12.70
2024-03-12T10:15:16.331Z,14.20
2024-03-12T10:18:08.475Z,12.60
2024-03-12T10:20:59.631Z,12.30
2024-03-12T10:23:49.023Z,13.70
2024-03-12T10:26:37.713Z,11.70
2024-03-12T10:29:26.144Z,14.10
2024-03-12T10:32:23.183Z,12.90
2024-03-12T10:35:21.237Z,12.40
2024-03-12T10:38:12.606Z,13.70
2024-03-12T10:41:22.956Z,13.00
2024-03-12T10:44:12.702Z,12.10
2024-03-12T10:47:02.473Z,14.00
2024-03-12T10:49:50.414Z,13.60
2024-03-12T10:52:39.744Z,13.90
2024-03-12T10:55:32.195Z,14.70
2024-03-12T10:58:23.025Z,10.70
2024-03-12T11:01:11.982Z,11.50
2024-03-12T11:04:02.064Z,11.10
2024-03-12T11:06:53.138Z,12.30
2024-03-12T11:09:41.945Z,11.60
2024-03-12T11:12:30.130Z,11.80
2024-03-12T11:15:19.627Z,13.00
2024-03-12T11:18:08.346Z,14.60
2024-03-12T11:20:56.430Z,13.60
2024-03-12T11:23:46.850Z,14.00
2024-03-12T11:26:37.115Z,11.90
2024-03-12T11:32:58.513Z,12.00
2024-03-12T11:35:48.005Z,13.10
2024-03-12T11:38:36.403Z,13.60
2024-03-12T11:41:26.800Z,13.80
2024-03-12T11:44:49.646Z,15.40
2024-03-12T11:47:40.282Z,12.00
2024-03-12T11:50:44.693Z,15.60
2024-03-12T11:53:36.644Z,13.30
2024-03-12T11:56:28.857Z,15.40
2024-03-12T11:59:24.988Z,11.60
2024-03-12T12:02:13.464Z,14.70
2024-03-12T12:05:04.036Z,12.20
2024-03-12T12:07:52.820Z,14.80
2024-03-12T12:10:41.126Z,14.40
2024-03-12T12:13:31.263Z,12.10
2024-03-12T12:16:19.834Z,15.50
2024-03-12T12:19:13.420Z,14.80
2024-03-12T12:22:11.683Z,16.90
2024-03-12T12:25:02.501Z,17.20
2024-03-12T12:30:40.230Z,14.70
2024-03-12T12:33:32.011Z,11.30
2024-03-12T12:36:26.711Z,12.20
2024-03-12T12:39:18.645Z,14.00
2024-03-12T12:42:08.614Z,16.10
2024-03-12T12:44:57.397Z,14.20
2024-03-12T12:47:52.011Z,14.40
2024-03-12T12:50:40.324Z,15.60
2024-03-12T12:53:28.773Z,14.90
2024-03-12T12:56:20.770Z,16.10
2024-03-12T12:59:14.202Z,16.50
2024-03-12T13:02:22.313Z,17.00
2024-03-12T13:05:24.881Z,18.70
2024-03-12T13:08:31.309Z,17.60
2024-03-12T13:11:22.710Z,17.40
2024-03-12T13:14:10.809Z,13.50
2024-03-12T13:17:00.818Z,13.20
2024-03-12T13:19:50.009Z,12.30
2024-03-12T13:22:38.257Z,13.30
2024-03-12T13:25:26.432Z,13.20
2024-03-12T13:28:18.879Z,10.50
2024-03-12T13:31:07.295Z,11.90
2024-03-12T13:33:55.809Z,11.10
2024-03-12T13:36:44.784Z,9.90
2024-03-12T13:39:33.247Z,12.80
2024-03-12T13:42:21.698Z,9.10
2024-03-12T13:45:10.940Z,10.70
2024-03-12T13:48:00.123Z,10.50
2024-03-12T13:50:48.663Z,9.70
2024-03-12T13:53:41.789Z,10.80
2024-03-12T13:56:34.470Z,12.00
2024-03-12T13:59:22.973Z,10.50
2024-03-12T14:02:14.991Z,9.80
2024-03-12T14:05:05.945Z,9.80
2024-03-12T14:07:54.780Z,9.80
2024-03-12T14:10:45.448Z,9.90
2024-03-12T14:13:36.467Z,8.90
2024-03-12T14:16:25.256Z,8.60
2024-03-12T14:19:13.908Z,9.00
2024-03-12T14:22:02.842Z,10.30
2024-03-12T14:24:53.234Z,9.00
2024-03-12T14:27:41.662Z,9.80
2024-03-12T14:30:30.203Z,9.00
2024-03-12T14:33:18.648Z,8.30
2024-03-12T14:36:08.372Z,8.10
2024-03-12T14:38:57.425Z,7.60
2024-03-12T14:41:46.027Z,8.00
2024-03-12T14:44:35.763Z,8.00
2024-03-12T14:47:24.441Z,9.30
2024-03-12T14:50:15.535Z,7.60
2024-03-12T14:53:04.213Z,9.10
2024-03-12T14:55:53.456Z,9.90
2024-03-12T14:58:42.143Z,8.90
2024-03-12T15:01:32.593Z,8.40
2024-03-12T15:04:22.356Z,7.90
2024-03-12T15:07:12.163Z,8.30
2024-03-12T15:10:01.367Z,11.50
2024-03-12T15:12:50.828Z,12.30
2024-03-12T15:15:38.961Z,11.20
2024-03-12T15:18:29.257Z,13.50
2024-03-12T15:24:08.311Z,10.80
2024-03-12T15:26:58.882Z,12.50
2024-03-12T15:29:47.262Z,11.90
2024-03-12T15:32:40.049Z,10.10
2024-03-12T15:35:29.348Z,12.10
2024-03-12T15:38:17.950Z,10.10
2024-03-12T15:41:07.830Z,12.40
2024-03-12T15:43:56.485Z,11.60
2024-03-12T15:46:44.625Z,11.50
2024-03-12T15:49:33.236Z,11.80
2024-03-12T15:52:22.506Z,10.90
2024-03-12T15:55:12.333Z,11.30
2024-03-12T15:58:01.015Z,11.00
2024-03-12T16:00:51.056Z,12.10
2024-03-12T16:03:39.867Z,13.70
2024-03-12T16:06:53.900Z,11.90
2024-03-12T16:09:45.752Z,10.00
2024-03-12T16:12:34.785Z,10.50
2024-03-12T16:15:24.058Z,11.10
2024-03-12T16:18:13.421Z,10.80
2024-03-12T16:21:02.064Z,9.20
2024-03-12T16:23:50.356Z,9.30
2024-03-12T16:26:39.104Z,11.70
2024-03-12T16:29:29.849Z,10.80
2024-03-12T16:32:18.368Z,12.80
2024-03-12T16:35:09.715Z,15.70
2024-03-12T16:37:58.800Z,13.20
2024-03-12T16:40:49.034Z,10.70
2024-03-12T16:43:37.771Z,13.30
2024-03-12T16:46:26.096Z,12.50
2024-03-12T16:49:15.378Z,12.80
2024-03-12T16:52:05.435Z,12.80
2024-03-12T16:54:54.784Z,11.70
2024-03-12T16:57:43.798Z,9.30
2024-03-12T17:00:33.353Z,7.60
2024-03-12T17:03:22.371Z,7.50
2024-03-12T17:06:11.795Z,7.90
2024-03-12T17:09:02.688Z,8.80
2024-03-12T17:11:51.722Z,7.50
2024-03-12T17:14:40.625Z,10.60
2024-03-12T17:17:28.605Z,10.00
2024-03-12T17:20:21.272Z,10.90
2024-03-12T17:23:10.366Z,8.00
2024-03-12T17:25:58.895Z,8.10
2024-03-12T17:28:47.693Z,8.10
2024-03-12T17:31:38.458Z,12.50
2024-03-12T17:34:30.705Z,9.80
2024-03-12T17:37:20.926Z,13.40
2024-03-12T17:40:16.313Z,8.80
2024-03-12T17:43:07.136Z,10.30
2024-03-12T17:46:14.179Z,8.80
2024-03-12T17:49:03.513Z,8.70
2024-03-12T17:51:53.068Z,12.30
2024-03-12T17:54:42.396Z,14.30
2024-03-12T17:57:33.287Z,13.40
2024-03-12T18:00:22.967Z,12.20
2024-03-12T18:03:15.702Z,12.70
2024-03-12T18:06:07.283Z,11.10
2024-03-12T18:09:01.393Z,10.50
2024-03-12T18:11:50.184Z,12.50
2024-03-12T18:14:40.068Z,9.90
2024-03-12T18:17:28.265Z,11.50
2024-03-12T18:20:31.453Z,8.20
2024-03-12T18:23:21.135Z,9.30
2024-03-12T18:26:09.414Z,11.20
2024-03-12T18:28:58.267Z,10.10
2024-03-12T18:31:46.386Z,10.20
2024-03-12T18:34:34.981Z,9.30
2024-03-12T18:37:22.945Z,9.00
2024-03-12T18:40:14.284Z,8.40
2024-03-12T18:43:04.759Z,10.10
2024-03-12T18:45:53.275Z,12.30
2024-03-12T18:48:42.573Z,12.70
2024-03-12T18:51:33.786Z,11.60
2024-03-12T18:54:24.036Z,13.90
2024-03-12T18:57:13.000Z,14.20
2024-03-12T19:00:02.093Z,11.60
2024-03-12T19:02:54.015Z,11.80
2024-03-12T19:05:42.727Z,10.30
2024-03-12T19:08:31.922Z,11.10
2024-03-12T19:11:21.283Z,12.70
2024-03-12T19:14:13.357Z,12.20
2024-03-12T19:17:03.440Z,11.70
2024-03-12T19:22:41.853Z,11.50
2024-03-12T19:25:30.516Z,12.90
2024-03-12T19:28:19.021Z,11.50
2024-03-12T19:31:10.421Z,9.30
2024-03-12T19:33:59.361Z,10.60
2024-03-12T19:36:48.873Z,10.60
2024-03-12T19:39:39.080Z,7.90
2024-03-12T19:45:24.239Z,9.10
2024-03-12T19:48:18.612Z,11.20
2024-03-12T19:51:10.479Z,9.50
2024-03-12T19:53:59.339Z,8.90
2024-03-12T19:56:48.173Z,8.00
2024-03-12T19:59:36.208Z,6.20
2024-03-12T20:02:26.143Z,8.00
2024-03-12T20:05:15.445Z,7.40
2024-03-12T20:08:10.451Z,8.90
2024-03-12T20:10:58.977Z,9.50
2024-03-12T20:13:49.820Z,7.60
2024-03-12T20:16:38.421Z,9.50
2024-03-12T20:19:26.649Z,8.40
2024-03-12T20:22:15.117Z,7.60
2024-03-12T20:25:09.765Z,9.00
2024-03-12T20:27:58.994Z,7.10
2024-03-12T20:30:49.481Z,6.60
2024-03-12T20:33:40.172Z,6.50
2024-03-12T20:36:28.902Z,7.50
2024-03-12T20:39:21.176Z,7.20
2024-03-12T20:42:10.551Z,5.40
2024-03-12T20:44:58.728Z,7.60
2024-03-12T20:47:49.009Z,7.00
2024-03-12T20:50:37.842Z,6.10
2024-03-12T20:53:29.353Z,6.00
2024-03-12T20:56:17.737Z,7.20
2024-03-12T20:59:06.552Z,6.10
2024-03-12T21:01:55.280Z,6.90
2024-03-12T21:04:44.867Z,7.60
2024-03-12T21:07:33.480Z,7.00
2024-03-12T21:10:24.580Z,5.60
2024-03-12T21:13:13.268Z,7.20
2024-03-12T21:16:02.120Z,9.50
2024-03-12T21:18:50.962Z,6.70
2024-03-12T21:21:39.499Z,7.00
2024-03-12T21:24:27.837Z,6.80
2024-03-12T21:27:18.240Z,4.60
2024-03-12T21:30:13.567Z,5.80
2024-03-12T21:33:02.062Z,6.20
2024-03-12T21:35:50.362Z,4.70
2024-03-12T21:38:39.222Z,7.00
2024-03-12T21:41:27.554Z,5.80
2024-03-12T21:44:15.949Z,6.30
2024-03-12T21:47:05.165Z,5.60
2024-03-12T21:49:53.823Z,5.60
2024-03-12T21:52:43.758Z,7.50
2024-03-12T21:55:32.424Z,6.10
2024-03-12T21:58:21.176Z,5.60
2024-03-12T22:01:11.672Z,6.10
2024-03-12T22:06:48.276Z,6.50
2024-03-12T22:09:36.725Z,7.30
2024-03-12T22:12:25.629Z,6.50
2024-03-12T22:15:16.618Z,8.10
2024-03-12T22:18:05.970Z,8.60
2024-03-12T22:20:54.361Z,8.90
2024-03-12T22:23:45.403Z,9.50
2024-03-12T22:26:34.257Z,8.80
2024-03-12T22:29:22.746Z,9.20
2024-03-12T22:32:15.639Z,9.20
2024-03-12T22:35:05.699Z,8.30
2024-03-12T22:37:54.988Z,7.70
2024-03-12T22:40:44.695Z,8.60
2024-03-12T22:43:36.320Z,7.60
2024-03-12T22:46:25.669Z,7.10
2024-03-12T22:49:14.618Z,8.70
2024-03-12T22:52:06.559Z,8.00
2024-03-12T22:54:55.997Z,9.10
2024-03-12T22:57:45.038Z,8.30
2024-03-12T23:00:42.421Z,7.10
2024-03-12T23:03:31.466Z,8.00
2024-03-12T23:06:21.497Z,8.40
2024-03-12T23:09:10.441Z,8.00
2024-03-12T23:12:00.330Z,7.50
2024-03-12T23:14:51.379Z,6.60
2024-03-12T23:17:39.497Z,7.90
2024-03-12T23:20:28.380Z,7.50
2024-03-12T23:23:17.713Z,8.20
2024-03-12T23:26:06.052Z,6.60
2024-03-12T23:28:54.709Z,8.00
2024-03-12T23:31:44.459Z,7.50
2024-03-12T23:34:33.042Z,8.00
2024-03-12T23:37:21.654Z,9.60
2024-03-12T23:40:14.367Z,9.10
2024-03-12T23:43:02.787Z,8.20
2024-03-12T23:45:51.521Z,9.80
2024-03-12T23:48:40.078Z,9.40
2024-03-12T23:51:29.849Z,8.10
2024-03-12T23:54:18.687Z,7.30
2024-03-12T23:57:10.703Z,7.90
2024-03-12T23:59:58.756Z,7.00
